Weather at Bishman Private Airport

Public forecast

Using degrees Fahrenheit for public forecast. Weather courtesy of forecast.io.

Closest aviation weather report (METAR) to Bishman Private Airport

Closest report is Princeton Municipal Airport, 7.6 nm (14.1 km) SSW.

2024/07/25 09:15 (retrieved 21 minutes ago)

KPNM 250915Z AUTO 00000KT 5SM BR CLR 12/12 A3024 RMK AO2

Closest aviation forecast (TAF) to Bishman Private Airport

Closest forecast is Saint Cloud Regional Airport, 23.2 nm (43.0 km) WSW.

2024/07/25 06:22 (retrieved 3 hours ago)

TAF KSTC 250520Z 2506/2606 11003KT P6SM FEW200 FM251400 15008KT P6SM SKC FM260000 14005KT P6SM SKC